Terminal Aerodrome Forecast
Issued by NWS

Home | Current Version | Previous Version | Text Only | Print | Product List | Glossary On
Versions: 1 2 3 4 5 6 7 8 9 10 11 12 13 14 15 16 17 18 19 20 21 22 23 24 25 26
159
FTUS46 KMTR 190900 AAA
TAFSFO
TAF AMD
KSFO 190900Z 1909/2012 28020G25KT P6SM FEW020 SCT040
     FM191000 30015KT P6SM VCSH BKN030
     FM191700 30012KT P6SM SCT030
     FM192000 29020G27KT P6SM SKC
     FM200400 29012KT P6SM SKC
     FM200900 29004KT P6SM SKC=

USA.gov is the U.S. government's official web portal to all federal, state and local government web resources and services.